Time;durP1;ratioP1;P1;durP2;ratioP2;P2;SDS_P1;SDS_P2;PMS_P1;PMS_P2;Temp;Humidity;BMP_temperature;BMP_pressure;BME280_temperature;BME280_humidity;BME280_pressure;Samples;Min_cycle;Max_cycle;Signal;HPM_P1;HPM_P2
2022/12/14 00:01:17;;;;;;;19.33;12.50;;;-1.70;99.90;;;;;;5031242;28;20448;-70
2022/12/14 00:03:43;;;;;;;19.10;11.40;;;-1.70;99.90;;;;;;5029892;28;20508;-68
2022/12/14 00:06:26;;;;;;;17.70;12.03;;;-1.70;99.90;;;;;;5032015;28;20460;-69
2022/12/14 00:08:53;;;;;;;22.90;13.37;;;-1.60;99.90;;;;;;5040855;28;20433;-69
2022/12/14 00:11:21;;;;;;;17.53;12.10;;;-1.70;99.90;;;;;;5031310;28;20548;-68
2022/12/14 00:13:55;;;;;;;17.60;12.80;;;-1.70;99.90;;;;;;5033750;28;20431;-69
2022/12/14 00:16:21;;;;;;;21.20;12.40;;;-1.60;99.90;;;;;;5030802;28;20443;-69
2022/12/14 00:18:53;;;;;;;19.00;12.10;;;-1.70;99.90;;;;;;5030200;28;21012;-69
2022/12/14 00:21:20;;;;;;;26.80;13.47;;;-1.70;99.90;;;;;;5031780;28;20460;-69
2022/12/14 00:23:47;;;;;;;23.80;12.23;;;-1.70;99.90;;;;;;5038630;28;20461;-69
2022/12/14 00:26:31;;;;;;;18.40;12.20;;;-1.80;99.90;;;;;;5031539;28;20448;-68
2022/12/14 00:29:01;;;;;;;20.00;12.57;;;-1.80;99.90;;;;;;5030766;28;21901;-69
2022/12/14 00:31:27;;;;;;;20.00;11.93;;;-1.90;99.90;;;;;;5029878;28;20881;-69
2022/12/14 00:33:54;;;;;;;18.80;11.90;;;-2.00;99.90;;;;;;5030945;28;20433;-70
2022/12/14 00:36:20;;;;;;;16.80;11.50;;;-2.00;99.90;;;;;;5028851;28;20953;-69
2022/12/14 00:38:46;;;;;;;19.80;11.93;;;-2.00;99.90;;;;;;5030334;28;20455;-69
2022/12/14 00:41:12;;;;;;;18.40;12.23;;;-1.90;99.90;;;;;;5024258;28;20456;-69
2022/12/14 00:43:37;;;;;;;22.63;13.27;;;-2.00;99.90;;;;;;5037601;28;20615;-69
2022/12/14 00:46:03;;;;;;;23.00;14.03;;;-1.90;99.90;;;;;;5036937;28;20551;-69
2022/12/14 00:48:29;;;;;;;19.03;11.83;;;-1.90;99.90;;;;;;5032893;28;20178;-70
2022/12/14 00:50:55;;;;;;;22.40;12.90;;;-1.90;99.90;;;;;;5024768;28;20457;-69
2022/12/14 00:53:20;;;;;;;19.00;12.17;;;-1.90;99.90;;;;;;5037942;28;20185;-69
2022/12/14 00:55:47;;;;;;;20.23;12.93;;;-1.90;99.90;;;;;;5028460;28;20201;-69
2022/12/14 00:58:15;;;;;;;16.03;12.43;;;-1.80;99.90;;;;;;5040345;28;20188;-69
2022/12/14 01:00:40;;;;;;;21.60;13.30;;;-1.90;99.90;;;;;;5030776;28;20452;-69
2022/12/14 01:03:07;;;;;;;21.23;13.83;;;-1.90;99.90;;;;;;5035242;28;20582;-69
2022/12/14 01:05:35;;;;;;;17.10;12.83;;;-1.90;99.90;;;;;;5034639;28;20210;-70
2022/12/14 01:08:02;;;;;;;25.27;13.70;;;-1.90;99.90;;;;;;5036620;28;20437;-70
2022/12/14 01:10:27;;;;;;;19.77;14.47;;;-1.90;99.90;;;;;;5032787;28;20464;-70
2022/12/14 01:12:53;;;;;;;23.20;14.40;;;-1.80;99.90;;;;;;5042558;28;20792;-69
2022/12/14 01:15:18;;;;;;;19.80;13.10;;;-1.80;99.90;;;;;;5033128;28;20860;-69
2022/12/14 01:17:44;;;;;;;17.43;12.40;;;-1.70;99.90;;;;;;5039958;28;20209;-69
2022/12/14 01:20:10;;;;;;;21.90;14.57;;;-1.70;99.90;;;;;;5031746;28;20236;-70
2022/12/14 01:22:36;;;;;;;20.53;13.53;;;-1.70;99.90;;;;;;5034825;28;20278;-69
2022/12/14 01:25:03;;;;;;;18.90;13.40;;;-1.70;99.90;;;;;;5043593;28;20463;-69
2022/12/14 01:27:28;;;;;;;18.10;13.00;;;-1.70;99.90;;;;;;5031501;28;20443;-69
2022/12/14 01:29:54;;;;;;;27.87;14.07;;;-1.70;99.90;;;;;;5036470;28;20468;-69
2022/12/14 01:32:19;;;;;;;23.80;14.17;;;-1.70;99.90;;;;;;5040155;28;20671;-69
2022/12/14 01:34:47;;;;;;;18.33;13.13;;;-1.60;99.90;;;;;;5047686;28;20185;-69
2022/12/14 01:37:12;;;;;;;21.90;14.77;;;-1.50;99.90;;;;;;5033249;28;20178;-68
2022/12/14 01:39:38;;;;;;;20.20;15.10;;;-1.50;99.90;;;;;;5046126;28;20538;-70
2022/12/14 01:42:12;;;;;;;21.20;12.50;;;-1.50;99.90;;;;;;5042371;28;20193;-69
2022/12/14 01:44:38;;;;;;;23.53;15.33;;;-1.50;99.90;;;;;;5048291;28;20670;-70
2022/12/14 01:47:18;;;;;;;21.03;13.47;;;-1.50;99.90;;;;;;5038015;28;20543;-69
2022/12/14 01:49:47;;;;;;;17.97;13.10;;;-1.40;99.90;;;;;;5030850;28;20320;-69
2022/12/14 01:52:45;;;;;;;18.00;12.80;;;-1.40;99.90;;;;;;5032302;28;20980;-69
2022/12/14 01:55:49;;;;;;;20.30;14.37;;;-1.40;99.90;;;;;;5032221;28;20854;-69
2022/12/14 01:58:20;;;;;;;26.73;14.43;;;-1.40;99.90;;;;;;4997425;28;20452;-69
2022/12/14 02:00:45;;;;;;;20.90;13.40;;;-1.40;99.90;;;;;;5037667;28;20984;-70
2022/12/14 02:03:21;;;;;;;22.57;12.40;;;-1.40;99.90;;;;;;5045138;28;20497;-69
2022/12/14 02:05:58;;;;;;;18.20;13.67;;;-1.50;99.90;;;;;;5037318;28;20198;-69
2022/12/14 02:08:25;;;;;;;19.60;13.43;;;-1.60;99.90;;;;;;5041594;28;20436;-69
2022/12/14 02:10:53;;;;;;;19.87;13.80;;;-1.70;99.90;;;;;;5035155;28;20885;-69
2022/12/14 02:13:26;;;;;;;22.13;13.43;;;-1.60;99.90;;;;;;5043704;28;20435;-70
2022/12/14 02:15:52;;;;;;;23.20;14.30;;;-1.60;99.90;;;;;;5045645;28;20436;-69
2022/12/14 02:18:21;;;;;;;24.17;14.60;;;-1.70;99.90;;;;;;5032633;28;20452;-69
2022/12/14 02:21:23;;;;;;;23.37;13.80;;;-1.80;99.90;;;;;;5032121;28;20247;-69
2022/12/14 02:24:07;;;;;;;17.60;12.87;;;-1.80;99.90;;;;;;5032813;28;20527;-69
2022/12/14 02:26:42;;;;;;;20.03;12.83;;;-1.70;99.90;;;;;;5032403;28;20547;-69
2022/12/14 02:29:32;;;;;;;19.30;12.70;;;-1.50;99.90;;;;;;5028997;28;20428;-69
2022/12/14 02:32:14;;;;;;;18.27;12.43;;;-1.60;99.90;;;;;;5039336;28;20459;-69
2022/12/14 02:35:17;;;;;;;20.20;13.10;;;-1.70;99.90;;;;;;5033525;28;20575;-69
2022/12/14 02:37:51;;;;;;;21.43;14.70;;;-1.70;99.90;;;;;;5030475;28;20792;-70
2022/12/14 02:40:38;;;;;;;18.57;13.10;;;-1.70;99.90;;;;;;5034415;28;20509;-68
2022/12/14 02:43:24;;;;;;;18.87;13.50;;;-1.60;99.90;;;;;;5033159;28;20435;-69
2022/12/14 02:46:18;;;;;;;20.80;12.67;;;-1.60;99.90;;;;;;5046220;28;20468;-69
2022/12/14 02:48:57;;;;;;;23.27;11.77;;;-1.50;99.90;;;;;;5039495;28;20428;-69
2022/12/14 02:51:29;;;;;;;21.90;13.03;;;-1.50;99.90;;;;;;5041305;28;20960;-69
2022/12/14 02:54:04;;;;;;;19.10;13.60;;;-1.40;99.90;;;;;;5037548;28;20846;-69
2022/12/14 02:56:36;;;;;;;15.30;11.73;;;-1.40;99.90;;;;;;5039916;28;20961;-68
2022/12/14 02:59:05;;;;;;;20.03;12.50;;;-1.30;99.90;;;;;;5047373;28;20831;-68
2022/12/14 03:01:33;;;;;;;16.63;13.30;;;-1.30;99.90;;;;;;5044719;28;20458;-69
2022/12/14 03:03:59;;;;;;;18.37;12.30;;;-1.30;99.90;;;;;;5041699;28;20443;-69
2022/12/14 03:06:25;;;;;;;20.60;12.97;;;-1.30;99.90;;;;;;5031094;28;21040;-69
2022/12/14 03:08:55;;;;;;;15.00;12.13;;;-1.30;99.90;;;;;;5045958;28;20433;-69
2022/12/14 03:11:35;;;;;;;23.70;13.40;;;-1.30;99.90;;;;;;5039214;28;20212;-69
2022/12/14 03:14:11;;;;;;;19.20;13.73;;;-1.50;99.90;;;;;;5041796;28;20465;-69
2022/12/14 03:16:43;;;;;;;18.07;13.20;;;-1.50;99.90;;;;;;5036605;28;20459;-69
2022/12/14 03:19:29;;;;;;;20.47;14.50;;;-1.70;99.90;;;;;;5032660;28;20498;-69
2022/12/14 03:22:06;;;;;;;24.77;14.70;;;-1.70;99.90;;;;;;5031953;28;20472;-70
2022/12/14 03:24:39;;;;;;;20.13;13.60;;;-1.80;99.90;;;;;;5030292;28;20440;-69
2022/12/14 03:27:13;;;;;;;20.97;14.77;;;-1.70;99.90;;;;;;5024713;28;20460;-69
2022/12/14 03:29:46;;;;;;;16.57;11.70;;;-1.70;99.90;;;;;;5030350;28;20468;-69
2022/12/14 03:32:17;;;;;;;22.03;13.97;;;-1.60;99.90;;;;;;5031512;28;20444;-69
2022/12/14 03:34:59;;;;;;;24.70;14.87;;;-1.70;99.90;;;;;;5031663;28;20487;-68
2022/12/14 03:37:50;;;;;;;23.00;14.90;;;-1.70;99.90;;;;;;5036122;28;20440;-69
2022/12/14 03:40:16;;;;;;;20.10;13.77;;;-1.60;99.90;;;;;;5028305;28;20895;-69
2022/12/14 03:43:40;;;;;;;23.07;16.70;;;-1.50;99.90;;;;;;5035366;28;20537;-69
2022/12/14 03:46:26;;;;;;;20.20;14.40;;;-1.40;99.90;;;;;;4985901;28;20908;-69
2022/12/14 03:48:58;;;;;;;17.13;11.67;;;-1.40;99.90;;;;;;4980094;28;20522;-69
2022/12/14 03:52:06;;;;;;;26.23;14.30;;;-1.40;99.90;;;;;;5015909;28;20461;-70
2022/12/14 03:54:48;;;;;;;21.73;15.00;;;-1.40;99.90;;;;;;5029251;28;21127;-69
2022/12/14 03:57:31;;;;;;;22.97;14.30;;;-1.40;99.90;;;;;;5034783;28;21015;-69
2022/12/14 04:00:01;;;;;;;22.40;15.17;;;-1.30;99.90;;;;;;5030539;28;20611;-69
2022/12/14 04:02:57;;;;;;;23.30;13.70;;;-1.30;99.90;;;;;;5030956;28;20467;-69
2022/12/14 04:05:38;;;;;;;20.67;14.93;;;-1.20;99.90;;;;;;5030496;28;20476;-70
2022/12/14 04:08:06;;;;;;;24.73;16.00;;;-1.30;99.90;;;;;;5030486;28;20432;-69
2022/12/14 04:19:19;;;;;;;17.60;14.63;;;-1.50;99.90;;;;;;5032212;28;20486;-69
2022/12/14 04:22:06;;;;;;;24.93;15.60;;;-1.60;99.90;;;;;;5029600;28;20425;-69
2022/12/14 04:27:36;;;;;;;23.30;15.47;;;-1.60;99.90;;;;;;5030249;28;20883;-70
2022/12/14 04:30:05;;;;;;;23.10;15.47;;;-1.70;99.90;;;;;;5030191;28;20459;-71
2022/12/14 04:32:54;;;;;;;19.90;15.40;;;-1.60;99.90;;;;;;5030241;28;20437;-69
2022/12/14 04:35:37;;;;;;;20.97;14.83;;;-1.60;99.90;;;;;;5030675;28;20483;-70
2022/12/14 04:38:31;;;;;;;19.70;15.67;;;-1.60;99.90;;;;;;5028167;28;20946;-69
2022/12/14 04:41:02;;;;;;;25.47;15.77;;;-1.60;99.90;;;;;;5033132;28;20530;-69
2022/12/14 04:43:34;;;;;;;22.90;16.40;;;-1.50;99.90;;;;;;5041221;28;20467;-70
2022/12/14 04:46:09;;;;;;;24.93;17.17;;;-1.50;99.90;;;;;;5036141;28;20468;-69
2022/12/14 04:48:56;;;;;;;25.60;16.67;;;-1.60;99.90;;;;;;5035264;28;20449;-69
2022/12/14 04:51:32;;;;;;;27.03;16.07;;;-1.50;99.90;;;;;;5036716;28;22213;-68
2022/12/14 04:54:08;;;;;;;21.13;15.13;;;-1.50;99.90;;;;;;5043905;28;20444;-69
2022/12/14 04:56:54;;;;;;;24.43;17.73;;;-1.40;99.90;;;;;;5035899;28;20444;-69
2022/12/14 04:59:19;;;;;;;30.03;17.23;;;-1.40;99.90;;;;;;5026983;28;20452;-69
2022/12/14 05:01:57;;;;;;;23.07;16.70;;;-1.30;99.90;;;;;;5031186;28;20429;-70
2022/12/14 05:04:36;;;;;;;24.50;15.60;;;-1.30;99.90;;;;;;5029322;28;20194;-69
2022/12/14 05:07:04;;;;;;;22.57;17.77;;;-1.20;99.90;;;;;;5033466;28;20546;-70
2022/12/14 05:09:38;;;;;;;24.10;15.70;;;-1.30;99.90;;;;;;5037739;28;20522;-69
2022/12/14 05:12:17;;;;;;;22.23;15.83;;;-1.30;99.90;;;;;;5029417;28;20798;-69
2022/12/14 05:14:51;;;;;;;22.93;16.23;;;-1.40;99.90;;;;;;5032926;28;20437;-69
2022/12/14 05:17:17;;;;;;;21.90;15.20;;;-1.30;99.90;;;;;;5034437;28;20821;-70
2022/12/14 05:19:47;;;;;;;20.53;14.90;;;-1.30;99.90;;;;;;5030601;28;20933;-69
2022/12/14 05:22:13;;;;;;;21.17;15.37;;;-1.20;99.90;;;;;;5032962;28;20460;-70
2022/12/14 05:24:39;;;;;;;25.40;16.87;;;-1.20;99.90;;;;;;5028033;28;20432;-70
2022/12/14 05:27:05;;;;;;;22.80;16.27;;;-1.30;99.90;;;;;;5031904;28;20471;-69
2022/12/14 05:29:30;;;;;;;23.80;15.43;;;-1.30;99.90;;;;;;5027344;28;20206;-69
2022/12/14 05:31:56;;;;;;;24.50;16.83;;;-1.30;99.90;;;;;;5034224;28;20178;-69
2022/12/14 05:34:22;;;;;;;20.80;16.57;;;-1.30;99.90;;;;;;5041307;28;20674;-69
2022/12/14 05:36:48;;;;;;;24.47;15.90;;;-1.20;99.90;;;;;;5031498;28;20646;-68
2022/12/14 05:39:14;;;;;;;24.33;15.83;;;-1.10;99.90;;;;;;5027599;28;20208;-69
2022/12/14 05:41:40;;;;;;;26.53;16.90;;;-1.00;99.90;;;;;;5030112;28;20651;-69
2022/12/14 05:44:05;;;;;;;21.63;16.50;;;-0.90;99.90;;;;;;5037793;28;20440;-69
2022/12/14 05:46:31;;;;;;;23.73;17.50;;;-0.90;99.90;;;;;;5038737;28;20702;-69
2022/12/14 05:48:56;;;;;;;27.87;17.10;;;-0.90;99.90;;;;;;5026785;28;20613;-69
2022/12/14 05:51:22;;;;;;;23.53;16.07;;;-0.90;99.90;;;;;;5027592;28;20297;-69
2022/12/14 05:53:47;;;;;;;24.07;17.20;;;-0.90;99.90;;;;;;5033841;28;20196;-70
2022/12/14 05:56:13;;;;;;;25.00;17.40;;;-0.90;99.90;;;;;;5034484;28;20209;-69
2022/12/14 05:58:39;;;;;;;23.77;15.03;;;-0.80;99.90;;;;;;5041823;28;20192;-69
2022/12/14 06:01:08;;;;;;;29.20;17.13;;;-0.80;99.90;;;;;;5044324;28;20288;-69
2022/12/14 06:03:37;;;;;;;22.53;16.10;;;-0.90;99.90;;;;;;5034661;28;20182;-69
2022/12/14 06:06:08;;;;;;;25.13;17.40;;;-0.90;99.90;;;;;;5042601;28;20468;-68
2022/12/14 06:08:39;;;;;;;22.43;16.50;;;-0.80;99.90;;;;;;5045225;28;20796;-69
2022/12/14 06:11:10;;;;;;;23.77;16.27;;;-0.80;99.90;;;;;;5038637;28;20522;-69
2022/12/14 06:13:37;;;;;;;26.00;17.60;;;-0.90;99.90;;;;;;5037492;28;20520;-69
2022/12/14 06:16:13;;;;;;;25.27;17.57;;;-0.80;99.90;;;;;;5041795;28;20474;-67
2022/12/14 06:18:47;;;;;;;30.17;18.27;;;-0.80;99.90;;;;;;5043636;28;20978;-69
2022/12/14 06:21:15;;;;;;;24.77;18.90;;;-0.80;99.90;;;;;;5031738;28;20490;-69
2022/12/14 06:23:40;;;;;;;26.80;18.70;;;-0.80;99.90;;;;;;5038650;28;20437;-69
2022/12/14 06:26:07;;;;;;;25.10;19.10;;;-0.70;99.90;;;;;;5039674;28;20510;-69
2022/12/14 06:28:32;;;;;;;24.83;17.87;;;-0.70;99.90;;;;;;5032900;28;20175;-69
2022/12/14 06:30:58;;;;;;;23.40;16.43;;;-0.70;99.90;;;;;;5034072;28;20464;-70
2022/12/14 06:33:24;;;;;;;31.47;17.63;;;-0.70;99.90;;;;;;5032468;28;20178;-69
2022/12/14 06:35:50;;;;;;;27.67;19.87;;;-0.70;99.90;;;;;;5040547;28;20690;-69
2022/12/14 06:38:15;;;;;;;29.00;19.27;;;-0.80;99.90;;;;;;5031387;28;20174;-69
2022/12/14 06:40:41;;;;;;;25.83;18.33;;;-0.80;99.90;;;;;;5035177;28;20731;-70
2022/12/14 06:43:07;;;;;;;28.67;20.07;;;-0.70;99.90;;;;;;5031654;28;20182;-70
2022/12/14 06:45:32;;;;;;;29.97;19.40;;;-0.70;99.90;;;;;;5039757;28;20210;-70
2022/12/14 06:47:58;;;;;;;31.13;20.57;;;-0.90;99.90;;;;;;5031702;28;20224;-69
2022/12/14 06:50:26;;;;;;;25.60;18.30;;;-1.00;99.90;;;;;;5034938;28;20306;-70
2022/12/14 06:52:52;;;;;;;32.97;22.10;;;-0.90;99.90;;;;;;5031469;28;20174;-69
2022/12/14 06:55:17;;;;;;;28.70;20.20;;;-1.00;99.90;;;;;;5033459;28;20444;-70
2022/12/14 06:57:43;;;;;;;34.30;22.27;;;-1.00;99.90;;;;;;5032648;28;20186;-70
2022/12/14 07:00:12;;;;;;;35.43;20.93;;;-1.10;99.90;;;;;;5038920;28;20198;-69
2022/12/14 07:02:38;;;;;;;32.63;21.60;;;-1.00;99.90;;;;;;5031086;28;20285;-69
2022/12/14 07:05:05;;;;;;;36.60;20.80;;;-0.90;99.90;;;;;;5034196;28;20520;-69
2022/12/14 07:07:34;;;;;;;30.83;19.80;;;-0.80;99.90;;;;;;5030892;28;20881;-69
2022/12/14 07:10:00;;;;;;;31.00;22.00;;;-0.80;99.90;;;;;;5042171;28;20477;-69
2022/12/14 07:12:26;;;;;;;28.03;20.40;;;-0.70;99.90;;;;;;5032620;28;20433;-69
2022/12/14 07:14:53;;;;;;;33.17;21.80;;;-0.60;99.90;;;;;;5030425;28;20804;-69
2022/12/14 07:17:18;;;;;;;30.50;21.67;;;-0.50;99.90;;;;;;5029925;28;20437;-69
2022/12/14 07:19:44;;;;;;;29.90;19.63;;;-0.50;99.90;;;;;;5030588;28;20449;-69
2022/12/14 07:22:10;;;;;;;33.10;24.50;;;-0.50;99.90;;;;;;5035648;28;20182;-69
2022/12/14 07:24:36;;;;;;;33.90;20.60;;;-0.50;99.90;;;;;;5031781;28;20174;-69
2022/12/14 07:27:02;;;;;;;34.53;23.13;;;-0.60;99.90;;;;;;5039582;28;20290;-69
2022/12/14 07:29:27;;;;;;;29.87;20.87;;;-0.60;99.90;;;;;;5032112;28;20532;-70
2022/12/14 07:31:53;;;;;;;33.03;21.97;;;-0.80;99.90;;;;;;5041760;28;20171;-69
2022/12/14 07:34:18;;;;;;;27.97;18.83;;;-0.90;99.90;;;;;;5030811;28;20186;-69
2022/12/14 07:36:44;;;;;;;37.77;22.00;;;-1.00;99.90;;;;;;5038502;28;20197;-68
2022/12/14 07:39:16;;;;;;;34.53;21.40;;;-1.00;99.90;;;;;;5030660;28;20246;-69
2022/12/14 07:41:42;;;;;;;27.00;19.47;;;-0.80;99.90;;;;;;5035109;28;20252;-69
2022/12/14 07:44:08;;;;;;;32.30;21.60;;;-0.70;99.90;;;;;;5031534;28;20453;-70
2022/12/14 07:46:34;;;;;;;36.10;25.20;;;-0.80;99.90;;;;;;5039214;28;20457;-70
2022/12/14 07:49:00;;;;;;;33.43;22.60;;;-0.60;99.90;;;;;;5031723;28;20535;-70
2022/12/14 07:51:32;;;;;;;31.77;23.10;;;-0.60;99.90;;;;;;5036545;28;20219;-70
2022/12/14 07:53:59;;;;;;;35.27;21.43;;;-0.60;99.90;;;;;;5029679;28;20952;-69
2022/12/14 07:56:27;;;;;;;28.13;20.20;;;-0.50;99.90;;;;;;5038288;28;20963;-69
2022/12/14 07:58:54;;;;;;;31.63;22.97;;;-0.40;99.90;;;;;;5030256;28;20432;-69
2022/12/14 08:01:23;;;;;;;30.37;21.43;;;-0.30;99.90;;;;;;5033423;28;20576;-69
2022/12/14 08:03:51;;;;;;;34.53;21.07;;;-0.20;99.90;;;;;;5032934;28;20452;-69
2022/12/14 08:06:19;;;;;;;30.73;21.17;;;-0.30;99.90;;;;;;5036699;28;22414;-69
2022/12/14 08:08:44;;;;;;;34.90;21.97;;;-0.40;99.90;;;;;;5029906;28;20482;-69
2022/12/14 08:11:13;;;;;;;32.43;21.97;;;-0.50;99.90;;;;;;5028384;28;20456;-68
2022/12/14 08:13:38;;;;;;;32.13;23.00;;;-0.60;99.90;;;;;;5031284;28;20543;-69
2022/12/14 08:16:07;;;;;;;38.20;24.07;;;-0.50;99.90;;;;;;5027543;28;20527;-68
2022/12/14 08:18:33;;;;;;;33.67;23.10;;;-0.40;99.90;;;;;;5030580;28;20572;-70
2022/12/14 08:21:00;;;;;;;32.30;22.93;;;-0.20;99.90;;;;;;5038804;28;20969;-69
2022/12/14 08:23:25;;;;;;;33.73;21.73;;;-0.10;99.90;;;;;;5039533;28;20437;-69
2022/12/14 08:25:53;;;;;;;29.40;21.40;;;-0.10;99.90;;;;;;5039197;28;20473;-69
2022/12/14 08:28:19;;;;;;;32.50;23.03;;;-0.10;99.90;;;;;;5042053;28;20173;-70
2022/12/14 08:30:45;;;;;;;29.23;23.20;;;0.00;99.90;;;;;;5038305;28;20516;-68
2022/12/14 08:33:10;;;;;;;30.50;21.73;;;-0.10;99.90;;;;;;5037368;28;20650;-69
2022/12/14 08:35:36;;;;;;;31.33;23.53;;;-0.10;99.90;;;;;;5033016;28;20190;-69
2022/12/14 08:38:01;;;;;;;41.20;22.60;;;-0.10;99.90;;;;;;5017774;28;20189;-68
2022/12/14 08:40:27;;;;;;;30.87;22.30;;;-0.10;99.90;;;;;;5003264;28;21441;-69
2022/12/14 08:42:53;;;;;;;30.70;21.63;;;-0.20;99.90;;;;;;5029984;28;20594;-69
2022/12/14 08:45:18;;;;;;;34.33;22.97;;;-0.20;99.90;;;;;;5025310;28;20457;-69
2022/12/14 08:47:45;;;;;;;31.60;23.10;;;-0.10;99.90;;;;;;5030786;28;20178;-69
2022/12/14 08:50:11;;;;;;;42.13;22.83;;;-0.20;99.90;;;;;;5035424;28;20192;-69
2022/12/14 08:52:37;;;;;;;34.00;22.63;;;-0.20;99.90;;;;;;5036833;28;20433;-68
2022/12/14 08:55:03;;;;;;;32.23;22.60;;;-0.20;99.90;;;;;;5026356;28;20440;-70
2022/12/14 08:57:29;;;;;;;32.40;22.60;;;-0.30;99.90;;;;;;5025602;28;20197;-67
2022/12/14 08:59:54;;;;;;;37.53;22.97;;;-0.30;99.90;;;;;;5024542;28;22485;-70
2022/12/14 09:02:20;;;;;;;33.97;22.70;;;-0.20;99.90;;;;;;5024831;28;20186;-68
2022/12/14 09:04:45;;;;;;;31.70;21.33;;;-0.10;99.90;;;;;;5028596;28;20186;-69
2022/12/14 09:07:11;;;;;;;33.00;23.30;;;0.00;99.90;;;;;;5020845;28;20220;-70
2022/12/14 09:09:37;;;;;;;35.30;24.20;;;0.00;99.90;;;;;;5023854;28;20224;-69
2022/12/14 09:12:05;;;;;;;34.10;23.93;;;0.10;99.90;;;;;;5032742;28;20173;-70
2022/12/14 09:14:32;;;;;;;41.10;25.73;;;0.00;99.90;;;;;;5038265;28;20182;-70
2022/12/14 09:16:58;;;;;;;32.70;24.47;;;0.10;99.90;;;;;;5032188;28;20445;-70
2022/12/14 09:19:24;;;;;;;37.90;26.00;;;0.00;99.90;;;;;;5024982;28;20448;-69
2022/12/14 09:21:49;;;;;;;37.40;24.87;;;-0.20;99.90;;;;;;5029579;28;20444;-71
2022/12/14 09:24:15;;;;;;;36.00;23.87;;;-0.10;99.90;;;;;;5034250;28;20189;-71
2022/12/14 09:26:40;;;;;;;34.87;25.37;;;-0.10;99.90;;;;;;5025990;28;20221;-73
2022/12/14 09:29:06;;;;;;;40.70;26.47;;;-0.20;99.90;;;;;;5027147;28;20553;-72
2022/12/14 09:31:31;;;;;;;36.30;25.53;;;-0.20;99.90;;;;;;5029499;28;20754;-73
2022/12/14 09:33:57;;;;;;;37.87;25.93;;;-0.20;99.90;;;;;;5029307;28;20182;-72
2022/12/14 09:36:26;;;;;;;37.43;25.70;;;-0.30;99.90;;;;;;5032293;28;20233;-72
2022/12/14 09:38:54;;;;;;;36.33;25.70;;;-0.30;99.90;;;;;;5023775;28;20629;-73
2022/12/14 09:41:29;;;;;;;35.97;24.23;;;-0.20;99.90;;;;;;5033603;28;20471;-72
2022/12/14 09:44:24;;;;;;;44.07;26.90;;;-0.20;99.90;;;;;;5031079;28;20440;-72
2022/12/14 09:46:53;;;;;;;45.17;26.60;;;-0.40;99.90;;;;;;5023612;28;20633;-72
2022/12/14 09:49:36;;;;;;;45.17;26.73;;;-0.40;99.90;;;;;;5030465;28;20440;-72
2022/12/14 09:52:05;;;;;;;43.00;25.17;;;-0.40;99.90;;;;;;5025817;28;20462;-73
2022/12/14 09:54:35;;;;;;;41.33;27.90;;;-0.50;99.90;;;;;;5033289;28;20813;-72
2022/12/14 09:57:10;;;;;;;43.77;26.07;;;-0.50;99.90;;;;;;5029971;28;20527;-72
2022/12/14 09:59:36;;;;;;;37.63;26.07;;;-0.50;99.90;;;;;;5026883;28;20467;-72
2022/12/14 10:02:13;;;;;;;41.13;26.40;;;-0.50;99.90;;;;;;5040513;28;20452;-71
2022/12/14 10:04:55;;;;;;;42.07;27.57;;;-0.50;99.90;;;;;;5031702;28;20324;-70
2022/12/14 10:07:33;;;;;;;40.73;26.97;;;-0.50;99.90;;;;;;5025475;28;20503;-71
2022/12/14 10:10:15;;;;;;;45.10;28.63;;;-0.50;99.90;;;;;;5029652;28;21020;-72
2022/12/14 10:13:10;;;;;;;45.57;26.80;;;-0.40;99.90;;;;;;5032193;28;20934;-71
2022/12/14 10:16:11;;;;;;;41.90;26.23;;;-0.30;99.90;;;;;;5021941;28;20530;-72
2022/12/14 10:18:51;;;;;;;42.07;28.20;;;-0.10;99.90;;;;;;5023532;28;21065;-72
2022/12/14 10:21:21;;;;;;;41.87;27.30;;;-0.10;99.90;;;;;;5027118;28;20452;-72
2022/12/14 10:24:00;;;;;;;39.80;26.67;;;-0.10;99.90;;;;;;5031033;28;21030;-73
2022/12/14 10:26:31;;;;;;;45.53;26.80;;;0.00;99.90;;;;;;5027682;28;21033;-71
2022/12/14 10:29:03;;;;;;;43.77;28.47;;;0.10;99.90;;;;;;5029094;28;20509;-71
2022/12/14 10:31:43;;;;;;;43.50;28.93;;;0.20;99.90;;;;;;5030142;28;20460;-72
2022/12/14 10:34:17;;;;;;;39.03;25.67;;;0.30;99.90;;;;;;5027741;28;20439;-70
2022/12/14 10:37:21;;;;;;;43.17;26.20;;;0.30;99.90;;;;;;5034131;28;20949;-72
2022/12/14 10:40:09;;;;;;;39.07;25.37;;;0.40;99.90;;;;;;4999335;28;20468;-70
2022/12/14 10:43:13;;;;;;;41.67;26.87;;;0.40;99.90;;;;;;5020615;28;20437;-72
2022/12/14 10:45:46;;;;;;;43.90;29.07;;;0.50;99.90;;;;;;5027467;28;20885;-74
2022/12/14 10:48:17;;;;;;;42.13;28.00;;;0.50;99.90;;;;;;5020761;28;20444;-73
2022/12/14 10:51:03;;;;;;;50.67;30.93;;;0.50;99.90;;;;;;5029730;28;20540;-73
2022/12/14 10:53:37;;;;;;;40.50;30.03;;;0.60;99.90;;;;;;5029262;28;20445;-73
2022/12/14 10:56:08;;;;;;;42.90;28.80;;;0.80;99.90;;;;;;5031541;28;20933;-73
2022/12/14 10:58:34;;;;;;;39.40;26.63;;;0.80;99.90;;;;;;5023905;28;20479;-73
2022/12/14 11:01:00;;;;;;;35.63;26.37;;;1.00;99.90;;;;;;5032522;28;20460;-73
2022/12/14 11:03:27;;;;;;;40.40;27.30;;;1.00;99.90;;;;;;5024322;28;20174;-73
2022/12/14 11:06:09;;;;;;;47.13;30.27;;;1.10;99.90;;;;;;5028531;28;20198;-74
2022/12/14 11:08:44;;;;;;;47.07;30.70;;;1.10;99.90;;;;;;5025670;28;20433;-73
2022/12/14 11:11:19;;;;;;;40.90;25.70;;;1.00;99.90;;;;;;5025644;28;20452;-73
2022/12/14 11:14:07;;;;;;;39.27;28.00;;;1.00;99.90;;;;;;5028449;28;20434;-73
2022/12/14 11:16:35;;;;;;;50.93;30.93;;;1.10;99.90;;;;;;5025819;28;20436;-73
2022/12/14 11:19:04;;;;;;;44.67;30.50;;;1.10;99.90;;;;;;5027727;28;20437;-73
2022/12/14 11:21:32;;;;;;;48.30;29.97;;;1.20;99.90;;;;;;5028241;28;20889;-72
2022/12/14 11:23:58;;;;;;;41.57;26.83;;;1.20;99.90;;;;;;5030939;28;21005;-73
2022/12/14 11:26:39;;;;;;;38.50;26.93;;;1.00;99.90;;;;;;5030017;28;20460;-73
2022/12/14 11:29:32;;;;;;;36.90;25.47;;;0.80;99.90;;;;;;5031333;28;20276;-73
2022/12/14 11:31:59;;;;;;;42.40;27.10;;;0.70;99.90;;;;;;5029678;28;20460;-72
2022/12/14 11:34:33;;;;;;;36.47;26.00;;;0.70;99.90;;;;;;5029276;28;20429;-72
2022/12/14 11:37:21;;;;;;;40.13;28.27;;;0.70;99.90;;;;;;5032312;28;20432;-73
2022/12/14 11:39:56;;;;;;;38.67;26.70;;;0.70;99.90;;;;;;5027337;28;20482;-73
2022/12/14 11:42:23;;;;;;;42.80;28.40;;;0.70;99.90;;;;;;5027686;28;20439;-73
2022/12/14 11:44:50;;;;;;;42.30;28.60;;;0.70;99.90;;;;;;5031556;28;20529;-72
2022/12/14 11:47:21;;;;;;;37.30;28.60;;;0.70;99.90;;;;;;5030210;28;20461;-70
2022/12/14 11:49:50;;;;;;;45.80;29.27;;;0.80;99.90;;;;;;5029225;28;20452;-73
2022/12/14 11:52:19;;;;;;;39.40;25.70;;;0.90;99.90;;;;;;5031064;28;20429;-72
2022/12/14 11:55:01;;;;;;;46.13;29.90;;;1.00;99.90;;;;;;5032375;28;20480;-74
2022/12/14 11:57:35;;;;;;;43.57;28.60;;;1.00;99.90;;;;;;5028172;28;20459;-73
2022/12/14 12:00:20;;;;;;;41.77;27.47;;;1.10;99.90;;;;;;5033531;28;20451;-74
2022/12/14 12:02:54;;;;;;;39.07;27.87;;;1.10;99.90;;;;;;5029237;28;20801;-74
2022/12/14 12:05:22;;;;;;;43.90;28.07;;;1.30;99.90;;;;;;5029006;28;20443;-74
2022/12/14 12:07:47;;;;;;;42.50;30.43;;;1.50;99.90;;;;;;5027027;28;20452;-73
2022/12/14 12:10:17;;;;;;;42.10;29.07;;;1.70;99.90;;;;;;5041604;28;20463;-72
2022/12/14 12:12:49;;;;;;;42.77;27.43;;;2.10;99.90;;;;;;5029836;28;20625;-73
2022/12/14 12:15:19;;;;;;;44.77;29.03;;;2.50;99.90;;;;;;5036480;28;20449;-69
2022/12/14 12:17:49;;;;;;;40.97;28.77;;;2.40;99.90;;;;;;5016648;28;20456;-71
2022/12/14 12:20:25;;;;;;;40.80;29.17;;;2.40;99.90;;;;;;5029578;28;20463;-71
2022/12/14 12:22:57;;;;;;;42.23;27.13;;;2.50;99.90;;;;;;5031762;28;20429;-71
2022/12/14 12:25:25;;;;;;;41.13;28.60;;;2.50;99.90;;;;;;5019714;28;20552;-71
2022/12/14 12:28:03;;;;;;;37.53;27.77;;;2.50;99.90;;;;;;5022628;28;20456;-71
2022/12/14 12:30:32;;;;;;;38.57;27.53;;;2.40;99.90;;;;;;5025442;28;20456;-71
2022/12/14 12:33:22;;;;;;;46.17;29.17;;;2.50;99.90;;;;;;5030529;28;20440;-71
2022/12/14 12:35:50;;;;;;;43.47;29.40;;;2.40;99.90;;;;;;5045339;28;20445;-68
2022/12/14 12:38:45;;;;;;;44.73;31.10;;;2.20;99.90;;;;;;5018577;28;20445;-67
2022/12/14 12:41:27;;;;;;;42.90;29.80;;;2.00;99.90;;;;;;5015726;28;20891;-68
2022/12/14 12:44:01;;;;;;;42.07;30.07;;;1.90;99.90;;;;;;5033616;28;22311;-69
2022/12/14 12:46:32;;;;;;;45.63;31.87;;;1.90;99.90;;;;;;5026538;28;20468;-68
2022/12/14 12:49:09;;;;;;;43.07;29.93;;;1.90;99.90;;;;;;5017375;28;20442;-69
2022/12/14 12:51:43;;;;;;;42.87;30.90;;;2.00;99.90;;;;;;5039927;28;20461;-69
2022/12/14 12:54:17;;;;;;;39.53;29.70;;;2.00;99.90;;;;;;5027949;28;20430;-69
2022/12/14 12:56:50;;;;;;;38.13;28.90;;;2.10;99.90;;;;;;5025364;28;20466;-69
2022/12/14 12:59:20;;;;;;;40.70;30.57;;;2.10;99.90;;;;;;5024005;28;20435;-69
2022/12/14 13:01:51;;;;;;;45.77;31.73;;;2.00;99.90;;;;;;5026130;28;20472;-69
2022/12/14 13:04:39;;;;;;;46.83;31.10;;;1.90;99.90;;;;;;5026939;28;20531;-69